San Julian, Argentina
Current Conditions -  °F | °C
As of 10:00 PM on Friday 21 Nov 2014 (Local Time) from SAWG Reporting Station
Moderate Rain Moderate Rain  
Wind Chill: 52°   Ceiling: 5800
Heat Index: 52°   Visibility: 6mi
Dew Point: 43°   Wind: 9mph
Humidity: 71%   Direction: 180°S
Pressure: 29.62"   Gusts: NA
Location:  49.31°S, 67.71°W
Report Text: SAWG 220100Z 18008KT 9999 RA BKN058 11/06 Q1003
Loading
Personal Weather Stations






























Interactive Weather Map New forecast layout! Learn more

10-Day Weather Forecast

Advertisements
Track Severe Weather on mobile